• Join FlightAware (Why Join?)
  • Login
  • US Flag 
12:04AM EST


 

Airport Tracker/Info


-or-


 

Live Flight TrackerFlight Track Log ✈ THY2481 ✈ 16-May-2013 ✈ LTAF / ADA - LTBA / IST

Flight Track Log - Related Links

Times and Time Zones

All times are in EDT time to prevent confusion due to time zone crossing. See the THY2481 flight status page for this flight to view local times or setup timezone preferences in your user account.

Time Position Orientation Groundspeed Altitude Reporting Facility
EDT Latitude Longitude Course Direction KTS MPH feet Rate Location/Type
05:50AM 37.9444 33.8391 311° West  Level Estimated
05:51AM 38.0005 33.7531 310° West  Level Estimated
05:52AM 38.0565 33.6670 310° West  Level Estimated
05:53AM 38.1124 33.5808 310° West  Level Estimated
05:54AM 38.1683 33.4945 309° West  Level Estimated
05:55AM 38.2240 33.4080 309° West  Level Estimated
05:56AM 38.2798 33.3214 309° West  Level Estimated
05:57AM 38.3355 33.2346 309° West  Level Estimated
05:58AM 38.3911 33.1478 309° West  Level Estimated
05:59AM 38.4466 33.0607 309° West  Level Estimated
06:00AM 38.5021 32.9736 309° West  Level Estimated
06:01AM 38.5575 32.8863 309° West  Level Estimated
06:02AM 38.6129 32.7989 309° West  Level Estimated
06:03AM 38.6681 32.7114 309° West  Level Estimated
06:04AM 38.7234 32.6237 309° West  Level Estimated
06:05AM 38.7785 32.5359 309° West  Level Estimated
06:06AM 38.8336 32.4479 309° West  Level Estimated
06:07AM 38.8886 32.3598 309° West  Level Estimated
06:08AM 38.9436 32.2716 309° West  Level Estimated
06:09AM 38.9985 32.1832 309° West  Level Estimated
06:10AM 39.0533 32.0947 309° West  Level Estimated
06:11AM 39.1081 32.0061 309° West  Level Estimated
06:12AM 39.1627 31.9173 308° West  Level Estimated
06:13AM 39.2174 31.8284 308° West  Level Estimated
06:14AM 39.2719 31.7394 308° West  Level Estimated
06:15AM 39.3264 31.6502 308° West  Level Estimated
06:16AM 39.3808 31.5608 308° West  Level Estimated
06:17AM 39.4352 31.4714 308° West  Level Estimated
06:18AM 39.4894 31.3818 308° West  Level Estimated
06:19AM 39.5437 31.2920 308° West  Level Estimated
06:20AM 39.5978 31.2021 308° West  Level Estimated
06:21AM 39.6519 31.1121 308° West  Level Estimated
06:22AM 39.7059 31.0219 308° West  Level Estimated
06:23AM 39.7598 30.9316 308° West  Level Estimated
06:24AM 39.8137 30.8412 308° West  Level Estimated
06:25AM 39.8675 30.7506 308° West  Level Estimated
06:26AM 39.9212 30.6598 308° West  Level Estimated
06:27AM 39.9748 30.5690 308° West  Level Estimated
06:28AM 40.0284 30.4779 308° West  Level Estimated
06:29AM 40.0819 30.3868 308° West  Level Estimated
06:30AM 40.1353 30.2955 307° West  Level Estimated
06:31AM 40.1887 30.2040 307° West  Level Estimated
06:32AM 40.2420 30.1124 307° West  Level Estimated
06:33AM 40.2952 30.0207 307° West  Level Estimated
06:34AM 40.3484 29.9288 307° West  Level Estimated
06:35AM 40.4015 29.8368 307° West  Level Estimated
06:36AM 40.4545 29.7446 307° West  Level Estimated
06:37AM 40.5074 29.6523 307° West  Level Estimated
06:38AM 40.5602 29.5598 307° West  Level Estimated
06:39AM 40.6130 29.4672 307° West  Level Estimated
06:40AM 40.6657 29.3744 307° West  Level Estimated
06:41AM 40.7184 29.2815 307° West  Level Estimated
06:42AM 40.7709 29.1885 307° West  Level Estimated
06:43AM 40.8234 29.0953 307° West  Level Estimated
06:44AM 40.8758 29.0019 307° West  Level Estimated
06:45AM 40.9282 28.9084 307° West  Level Estimated
06:46AM 40.9769 28.8211 306° West  Level Estimated
06:47AM 40.9769 28.8211 21° North  Level Estimated
06:48AM 40.9769 28.8211 21° North  Level Estimated
06:49AM 40.9769 28.8211 21° North  Level Estimated
06:50AM 40.9769 28.8211 21° North  Level Estimated
06:51AM 40.9769 28.8211 21° North  Level Estimated
06:52AM 40.9769 28.8211 21° North  Level Estimated
06:53AM 40.9769 28.8211 21° North  Level Estimated
06:54AM 40.9769 28.8211 21° North  Level Estimated
06:55AM 40.9769 28.8211 21° North  Level Estimated
06:56AM 40.9769 28.8211 21° North  Level Estimated
06:57AM 40.9769 28.8211 21° North  Level Estimated
06:58AM 40.9769 28.8211 21° North  Level Estimated
06:59AM 40.9769 28.8211 21° North  Level Estimated
07:00AM 40.9769 28.8211 21° North  Level Estimated
07:01AM 40.9769 28.8211 21° North  Level Estimated
07:02AM 40.9769 28.8211 21° North  Level Estimated